createdAt,value
2018-03-26T00:00:22.407Z,13.73
2018-03-26T00:02:57.470Z,13.55
2018-03-26T00:05:28.183Z,14.93
2018-03-26T00:07:59.605Z,17.47
2018-03-26T00:10:30.394Z,17.47
2018-03-26T00:13:00.574Z,17.73
2018-03-26T00:15:31.523Z,17.35
2018-03-26T00:18:01.928Z,11.77
2018-03-26T00:20:32.643Z,13.07
2018-03-26T00:23:03.182Z,14.52
2018-03-26T00:25:33.809Z,14.93
2018-03-26T00:28:05.310Z,13.32
2018-03-26T00:30:36.184Z,13.43
2018-03-26T00:33:06.684Z,15.27
2018-03-26T00:35:37.453Z,14.45
2018-03-26T00:38:08.013Z,12.60
2018-03-26T00:40:38.516Z,13.50
2018-03-26T00:43:09.099Z,15.63
2018-03-26T00:45:39.434Z,19.08
2018-03-26T00:48:11.566Z,17.40
2018-03-26T00:50:42.980Z,12.95
2018-03-26T00:53:14.333Z,11.90
2018-03-26T00:55:44.724Z,12.60
2018-03-26T00:58:15.402Z,15.50
2018-03-26T01:00:45.742Z,14.00
2018-03-26T01:03:16.557Z,12.98
2018-03-26T01:05:46.934Z,13.25
2018-03-26T01:08:17.830Z,15.18
2018-03-26T01:10:49.298Z,12.32
2018-03-26T01:13:19.751Z,12.55
2018-03-26T01:15:50.204Z,18.00
2018-03-26T01:18:21.433Z,12.98
2018-03-26T01:20:53.192Z,13.57
2018-03-26T01:23:24.147Z,12.43
2018-03-26T01:25:54.424Z,14.13
2018-03-26T01:28:25.057Z,15.25
2018-03-26T01:30:55.428Z,16.02
2018-03-26T01:33:26.585Z,15.07
2018-03-26T01:35:57.776Z,15.63
2018-03-26T01:38:29.853Z,16.15
2018-03-26T01:41:00.665Z,16.40
2018-03-26T01:43:31.671Z,15.57
2018-03-26T01:46:02.560Z,19.35
2018-03-26T01:48:34.296Z,13.98
2018-03-26T01:51:05.055Z,13.57
2018-03-26T01:53:36.037Z,12.02
2018-03-26T01:56:07.052Z,13.30
2018-03-26T01:58:37.849Z,12.75
2018-03-26T02:01:08.828Z,11.90
2018-03-26T02:03:39.044Z,15.20
2018-03-26T02:06:09.428Z,14.02
2018-03-26T02:08:40.606Z,11.25
2018-03-26T02:11:10.940Z,13.57
2018-03-26T02:13:41.354Z,15.18
2018-03-26T02:16:13.741Z,13.60
2018-03-26T02:18:44.395Z,16.40
2018-03-26T02:21:16.310Z,15.13
2018-03-26T02:23:47.034Z,17.30
2018-03-26T02:26:17.246Z,17.75
2018-03-26T02:28:47.967Z,13.30
2018-03-26T02:31:18.960Z,14.02
2018-03-26T02:33:49.291Z,14.70
2018-03-26T02:36:19.790Z,15.63
2018-03-26T02:38:50.781Z,14.68
2018-03-26T02:41:21.639Z,14.45
2018-03-26T02:43:52.670Z,13.50
2018-03-26T02:46:23.500Z,14.38
2018-03-26T02:48:53.848Z,14.70
2018-03-26T02:51:24.223Z,13.65
2018-03-26T02:53:54.468Z,12.75
2018-03-26T02:56:25.233Z,13.45
2018-03-26T02:58:55.412Z,11.83
2018-03-26T03:01:25.925Z,13.98
2018-03-26T03:03:57.165Z,11.52
2018-03-26T03:06:27.635Z,14.27
2018-03-26T03:08:58.052Z,12.40
2018-03-26T03:11:28.549Z,10.77
2018-03-26T03:13:59.316Z,12.43
2018-03-26T03:16:29.649Z,13.52
2018-03-26T03:19:01.038Z,12.43
2018-03-26T03:21:32.108Z,15.05
2018-03-26T03:24:02.602Z,16.98
2018-03-26T03:26:32.940Z,16.55
2018-03-26T03:29:04.108Z,16.40
2018-03-26T03:31:35.461Z,18.05
2018-03-26T03:34:06.518Z,15.40
2018-03-26T03:36:37.192Z,13.57
2018-03-26T03:39:07.851Z,15.10
2018-03-26T03:41:38.855Z,14.03
2018-03-26T03:44:09.484Z,14.32
2018-03-26T03:46:39.953Z,15.65
2018-03-26T03:49:11.327Z,14.55
2018-03-26T03:51:41.802Z,14.20
2018-03-26T03:54:11.989Z,13.20
2018-03-26T03:56:42.786Z,15.00
2018-03-26T03:59:15.568Z,12.55
2018-03-26T04:01:47.996Z,13.57
2018-03-26T04:04:18.621Z,12.40
2018-03-26T04:06:48.940Z,13.27
2018-03-26T04:09:20.808Z,13.35
2018-03-26T04:11:51.600Z,15.23
2018-03-26T04:14:22.721Z,14.55
2018-03-26T04:16:53.468Z,13.90
2018-03-26T04:19:24.478Z,22.00
2018-03-26T04:21:55.539Z,17.13
2018-03-26T04:24:25.754Z,15.98
2018-03-26T04:26:56.061Z,19.63
2018-03-26T04:29:27.272Z,18.95
2018-03-26T04:31:57.833Z,17.77
2018-03-26T04:34:29.189Z,16.95
2018-03-26T04:36:59.679Z,13.32
2018-03-26T04:39:30.473Z,13.52
2018-03-26T04:42:01.184Z,12.70
2018-03-26T04:44:31.358Z,17.67
2018-03-26T04:47:01.991Z,17.67
2018-03-26T04:49:33.544Z,14.80
2018-03-26T04:52:04.254Z,18.57
2018-03-26T04:54:35.313Z,22.07
2018-03-26T04:57:07.767Z,17.60
2018-03-26T04:59:38.353Z,17.52
2018-03-26T05:02:09.511Z,17.80
2018-03-26T05:04:41.662Z,24.85
2018-03-26T05:07:12.319Z,20.70
2018-03-26T05:09:48.003Z,14.95
2018-03-26T05:12:18.504Z,16.12
2018-03-26T05:15:01.856Z,17.62
2018-03-26T05:17:33.124Z,16.27
2018-03-26T05:20:04.132Z,16.23
2018-03-26T05:22:50.238Z,16.15
2018-03-26T05:25:32.052Z,20.92
2018-03-26T05:28:02.564Z,25.02
2018-03-26T05:30:36.171Z,15.95
2018-03-26T05:33:07.244Z,13.85
2018-03-26T05:35:38.423Z,15.82
2018-03-26T05:38:08.615Z,18.33
2018-03-26T05:40:41.829Z,15.50
2018-03-26T05:43:14.282Z,13.10
2018-03-26T05:45:47.843Z,11.75
2018-03-26T05:48:18.351Z,15.95
2018-03-26T05:50:48.743Z,16.20
2018-03-26T05:53:19.632Z,15.35
2018-03-26T05:55:50.492Z,20.10
2018-03-26T05:58:23.561Z,15.18
2018-03-26T06:00:54.272Z,13.77
2018-03-26T06:03:25.204Z,15.07
2018-03-26T06:05:55.496Z,19.60
2018-03-26T06:19:12.432Z,14.73
2018-03-26T06:21:46.616Z,15.13
2018-03-26T06:24:19.635Z,17.45
2018-03-26T06:26:51.295Z,16.60
2018-03-26T06:29:26.252Z,20.30
2018-03-26T06:32:30.227Z,20.45
2018-03-26T06:35:01.556Z,18.98
2018-03-26T06:37:32.114Z,15.43
2018-03-26T06:40:02.790Z,14.07
2018-03-26T06:45:34.832Z,13.50
2018-03-26T06:48:09.238Z,19.60
2018-03-26T06:50:42.021Z,18.35
2018-03-26T06:53:19.335Z,15.15
2018-03-26T06:55:57.475Z,16.50
2018-03-26T06:58:28.173Z,16.85
2018-03-26T07:01:01.877Z,21.25
2018-03-26T07:03:32.648Z,22.70
2018-03-26T07:06:17.350Z,20.00
2018-03-26T07:08:48.408Z,20.23
2018-03-26T07:11:18.961Z,23.27
2018-03-26T07:13:49.777Z,21.45
2018-03-26T07:16:20.100Z,22.08
2018-03-26T07:18:50.637Z,17.95
2018-03-26T07:21:21.135Z,17.45
2018-03-26T07:23:51.608Z,17.30
2018-03-26T07:26:22.883Z,28.42
2018-03-26T07:28:54.205Z,18.95
2018-03-26T07:32:08.324Z,23.83
2018-03-26T07:34:39.024Z,19.55
2018-03-26T07:37:11.949Z,21.92
2018-03-26T07:39:45.296Z,34.08
2018-03-26T07:42:17.002Z,19.12
2018-03-26T07:44:47.611Z,19.95
2018-03-26T07:47:32.232Z,19.37
2018-03-26T07:50:02.773Z,21.50
2018-03-26T07:52:35.586Z,17.58
2018-03-26T07:55:08.392Z,29.85
2018-03-26T07:57:42.080Z,23.67
2018-03-26T08:00:13.406Z,23.30
2018-03-26T08:02:50.205Z,20.73
2018-03-26T08:05:23.413Z,20.33
2018-03-26T08:07:54.641Z,19.27
2018-03-26T08:10:32.805Z,17.48
2018-03-26T08:13:06.841Z,19.58
2018-03-26T08:15:37.463Z,16.12
2018-03-26T08:18:15.556Z,17.73
2018-03-26T08:20:46.478Z,21.83
2018-03-26T08:23:24.335Z,17.92
2018-03-26T08:25:59.623Z,15.80
2018-03-26T08:28:32.143Z,14.80
2018-03-26T08:31:03.919Z,21.58
2018-03-26T08:33:49.948Z,20.45
2018-03-26T08:36:20.969Z,22.00
2018-03-26T08:38:57.708Z,15.90
2018-03-26T08:41:37.608Z,22.17
2018-03-26T08:44:10.353Z,24.85
2018-03-26T08:46:49.684Z,25.27
2018-03-26T08:49:30.774Z,25.83
2018-03-26T08:55:44.482Z,25.35
2018-03-26T08:58:16.612Z,22.37
2018-03-26T09:00:49.217Z,21.17
2018-03-26T09:03:24.828Z,22.98
2018-03-26T09:05:56.243Z,21.75
2018-03-26T09:08:28.152Z,22.08
2018-03-26T09:11:01.850Z,22.48
2018-03-26T09:13:34.520Z,25.67
2018-03-26T09:16:08.681Z,25.75
2018-03-26T09:18:41.365Z,25.55
2018-03-26T09:21:33.184Z,24.40
2018-03-26T09:24:26.435Z,23.27
2018-03-26T09:27:14.496Z,25.48
2018-03-26T09:29:57.208Z,23.03
2018-03-26T09:32:44.904Z,21.08
2018-03-26T09:35:49.954Z,22.17
2018-03-26T09:38:21.992Z,21.98
2018-03-26T09:41:00.427Z,25.85
2018-03-26T09:43:31.831Z,23.02
2018-03-26T09:46:06.754Z,21.93
2018-03-26T09:48:43.386Z,25.95
2018-03-26T09:51:20.606Z,22.23
2018-03-26T09:54:00.871Z,24.25
2018-03-26T09:56:33.834Z,29.95
2018-03-26T09:59:23.371Z,28.75
2018-03-26T10:02:11.805Z,28.05
2018-03-26T10:04:42.266Z,27.65
2018-03-26T10:07:15.108Z,31.80
2018-03-26T10:09:46.187Z,28.48
2018-03-26T10:12:26.757Z,29.35
2018-03-26T10:14:57.799Z,26.42
2018-03-26T10:17:31.586Z,26.30
2018-03-26T10:20:02.938Z,29.42
2018-03-26T10:22:33.926Z,32.13
2018-03-26T10:25:11.002Z,27.60
2018-03-26T10:27:51.478Z,29.87
2018-03-26T10:30:21.958Z,30.92
2018-03-26T10:33:05.370Z,33.83
2018-03-26T10:35:40.177Z,33.88
2018-03-26T10:38:13.929Z,36.20
2018-03-26T10:41:19.989Z,40.10
2018-03-26T10:44:00.540Z,36.33
2018-03-26T10:46:40.901Z,37.85
2018-03-26T10:49:14.054Z,36.17
2018-03-26T10:51:46.209Z,35.25
2018-03-26T10:57:52.951Z,35.90
2018-03-26T11:00:31.151Z,36.25
2018-03-26T11:03:02.274Z,36.85
2018-03-26T11:05:33.880Z,34.03
2018-03-26T11:08:06.486Z,35.22
2018-03-26T11:10:40.261Z,35.70
2018-03-26T11:13:40.803Z,35.92
2018-03-26T11:16:45.955Z,33.70
2018-03-26T11:19:42.015Z,33.90
2018-03-26T11:22:14.008Z,33.83
2018-03-26T11:24:47.152Z,37.22
2018-03-26T11:27:17.662Z,35.40
2018-03-26T11:30:37.280Z,37.60
2018-03-26T11:33:59.778Z,37.17
2018-03-26T11:36:31.213Z,38.13
2018-03-26T11:39:03.415Z,38.00
2018-03-26T11:41:33.868Z,35.03
2018-03-26T11:44:04.726Z,33.70
2018-03-26T11:49:34.661Z,37.45
2018-03-26T11:52:18.908Z,38.08
2018-03-26T11:54:51.358Z,34.25
2018-03-26T11:57:22.756Z,31.75
2018-03-26T12:00:00.401Z,32.50
2018-03-26T12:02:32.573Z,31.77
2018-03-26T12:05:04.638Z,31.92
2018-03-26T12:08:38.129Z,32.47
2018-03-26T12:11:41.646Z,33.30
2018-03-26T12:14:14.051Z,31.92
2018-03-26T12:16:46.215Z,33.72
2018-03-26T12:19:31.223Z,31.87
2018-03-26T12:22:04.019Z,34.47
2018-03-26T12:25:03.324Z,31.83
2018-03-26T12:27:41.511Z,33.77
2018-03-26T12:30:21.303Z,30.33
2018-03-26T12:32:59.494Z,33.13
2018-03-26T12:36:04.019Z,28.77
2018-03-26T12:38:40.289Z,29.58
2018-03-26T12:41:14.455Z,30.42
2018-03-26T12:43:45.993Z,29.02
2018-03-26T12:46:42.445Z,29.52
2018-03-26T12:49:13.132Z,26.60
2018-03-26T12:56:46.498Z,29.85
2018-03-26T12:59:17.741Z,28.80
2018-03-26T13:02:13.693Z,26.55
2018-03-26T13:04:45.017Z,28.80
2018-03-26T13:07:15.551Z,26.20
2018-03-26T13:09:46.603Z,30.42
2018-03-26T13:12:23.440Z,29.50
2018-03-26T13:14:56.323Z,30.62
2018-03-26T13:17:27.060Z,27.95
2018-03-26T13:20:01.407Z,26.45
2018-03-26T13:22:31.988Z,28.62
2018-03-26T13:25:05.162Z,29.87
2018-03-26T13:27:39.329Z,26.48
2018-03-26T13:30:14.248Z,28.35
2018-03-26T13:32:46.274Z,27.65
2018-03-26T13:35:23.651Z,26.70
2018-03-26T13:38:16.547Z,27.00
2018-03-26T13:40:48.158Z,25.45
2018-03-26T13:43:20.768Z,29.10
2018-03-26T13:45:52.519Z,28.27
2018-03-26T13:48:28.527Z,27.00
2018-03-26T13:51:03.554Z,27.65
2018-03-26T13:53:35.594Z,28.10
2018-03-26T13:56:12.006Z,28.60
2018-03-26T13:58:49.107Z,30.45
2018-03-26T14:01:41.511Z,29.33
2018-03-26T14:04:25.192Z,30.58
2018-03-26T14:06:56.659Z,33.65
2018-03-26T14:13:40.008Z,32.17
2018-03-26T14:16:35.905Z,32.60
2018-03-26T14:19:07.346Z,31.70
2018-03-26T14:21:42.708Z,34.50
2018-03-26T14:24:52.653Z,35.07
2018-03-26T14:28:06.074Z,33.80
2018-03-26T14:30:40.712Z,32.83
2018-03-26T14:33:28.797Z,32.80
2018-03-26T14:39:51.946Z,35.58
2018-03-26T14:42:37.503Z,31.15
2018-03-26T14:45:11.551Z,30.70
2018-03-26T14:47:45.753Z,35.90
2018-03-26T14:50:16.644Z,33.83
2018-03-26T14:52:55.806Z,36.08
2018-03-26T14:55:47.024Z,37.72
2018-03-26T15:01:57.492Z,41.28
2018-03-26T15:04:34.855Z,36.97
2018-03-26T15:07:08.217Z,34.30
2018-03-26T15:09:45.727Z,37.90
2018-03-26T15:12:20.937Z,39.85
2018-03-26T15:14:51.342Z,36.93
2018-03-26T15:17:37.007Z,39.87
2018-03-26T15:20:12.518Z,35.33
2018-03-26T15:22:43.578Z,40.45
2018-03-26T15:25:20.338Z,45.05
2018-03-26T15:27:50.760Z,42.42
2018-03-26T15:30:22.011Z,37.75
2018-03-26T15:32:52.361Z,39.63
2018-03-26T15:35:29.399Z,36.13
2018-03-26T15:38:10.796Z,38.80
2018-03-26T15:40:44.251Z,39.33
2018-03-26T15:43:17.977Z,38.95
2018-03-26T15:45:58.286Z,41.13
2018-03-26T15:48:37.114Z,36.53
2018-03-26T15:51:10.207Z,41.10
2018-03-26T15:53:41.170Z,39.25
2018-03-26T15:56:12.769Z,42.17
2018-03-26T15:59:00.898Z,39.08
2018-03-26T16:01:48.331Z,38.03
2018-03-26T16:04:27.845Z,39.25
2018-03-26T16:07:13.291Z,37.40
2018-03-26T16:10:01.903Z,39.65
2018-03-26T16:12:54.752Z,42.17
2018-03-26T16:15:41.136Z,41.20
2018-03-26T16:18:20.899Z,49.83
2018-03-26T16:21:13.095Z,43.85
2018-03-26T16:24:00.119Z,41.58
2018-03-26T16:26:44.235Z,42.70
2018-03-26T16:29:28.474Z,44.13
2018-03-26T16:35:26.989Z,42.58
2018-03-26T16:38:16.798Z,46.90
2018-03-26T16:41:09.549Z,43.13
2018-03-26T16:43:51.000Z,44.22
2018-03-26T16:46:35.017Z,44.20
2018-03-26T16:49:29.440Z,48.17
2018-03-26T16:52:10.087Z,44.33
2018-03-26T16:54:58.260Z,44.25
2018-03-26T16:57:48.126Z,44.65
2018-03-26T17:00:38.279Z,48.93
2018-03-26T17:03:24.523Z,47.78
2018-03-26T17:06:14.035Z,44.42
2018-03-26T17:09:01.027Z,44.95
2018-03-26T17:19:08.274Z,44.70
2018-03-26T17:25:17.842Z,42.85
2018-03-26T17:27:54.411Z,43.25
2018-03-26T17:30:48.342Z,44.30
2018-03-26T17:33:28.445Z,45.85
2018-03-26T17:36:00.521Z,43.80
2018-03-26T17:38:34.213Z,48.00
2018-03-26T17:41:06.124Z,47.10
2018-03-26T17:43:38.289Z,43.05
2018-03-26T17:46:14.418Z,43.03
2018-03-26T17:48:46.391Z,43.60
2018-03-26T17:51:17.724Z,45.58
2018-03-26T17:53:51.824Z,47.03
2018-03-26T17:56:22.948Z,44.58
2018-03-26T17:58:56.036Z,49.22
2018-03-26T18:01:27.854Z,46.30
2018-03-26T18:03:58.471Z,50.40
2018-03-26T18:06:36.075Z,47.65
2018-03-26T18:09:09.670Z,47.47
2018-03-26T18:11:40.483Z,46.20
2018-03-26T18:14:14.838Z,48.92
2018-03-26T18:16:46.496Z,48.60
2018-03-26T18:19:16.770Z,48.15
2018-03-26T18:21:46.922Z,48.58
2018-03-26T18:24:18.380Z,45.90
2018-03-26T18:26:50.031Z,50.40
2018-03-26T18:29:21.472Z,48.17
2018-03-26T18:31:52.027Z,52.53
2018-03-26T18:34:23.667Z,51.95
2018-03-26T18:36:54.494Z,49.53
2018-03-26T18:39:24.621Z,46.05
2018-03-26T18:41:55.039Z,48.70
2018-03-26T18:44:26.690Z,48.10
2018-03-26T18:46:58.627Z,47.75
2018-03-26T18:49:29.224Z,48.45
2018-03-26T18:52:00.472Z,49.00
2018-03-26T18:54:31.558Z,56.83
2018-03-26T18:57:03.719Z,49.00
2018-03-26T18:59:35.080Z,46.88
2018-03-26T19:02:06.712Z,50.00
2018-03-26T19:04:36.929Z,46.73
2018-03-26T19:07:07.302Z,46.67
2018-03-26T19:09:41.130Z,47.38
2018-03-26T19:12:11.619Z,46.37
2018-03-26T19:14:42.899Z,43.17
2018-03-26T19:17:14.071Z,46.83
2018-03-26T19:19:47.796Z,46.93
2018-03-26T19:22:20.494Z,43.50
2018-03-26T19:24:53.635Z,47.40
2018-03-26T19:27:25.429Z,48.00
2018-03-26T19:29:55.967Z,46.65
2018-03-26T19:32:30.987Z,42.17
2018-03-26T19:35:02.271Z,48.83
2018-03-26T19:37:33.762Z,46.10
2018-03-26T19:40:05.734Z,44.03
2018-03-26T19:42:39.371Z,51.25
2018-03-26T19:45:09.869Z,49.90
2018-03-26T19:47:42.054Z,46.25
2018-03-26T19:50:13.924Z,45.05
2018-03-26T19:52:50.242Z,45.83
2018-03-26T19:55:25.200Z,47.35
2018-03-26T19:57:55.626Z,44.05
2018-03-26T20:00:28.161Z,42.05
2018-03-26T20:03:00.302Z,45.10
2018-03-26T20:05:33.164Z,45.67
2018-03-26T20:08:05.498Z,44.92
2018-03-26T20:10:47.891Z,44.78
2018-03-26T20:13:23.413Z,45.30
2018-03-26T20:15:55.900Z,43.80
2018-03-26T20:18:27.087Z,45.72
2018-03-26T20:20:58.434Z,41.75
2018-03-26T20:23:31.337Z,45.58
2018-03-26T20:26:03.666Z,47.08
2018-03-26T20:28:36.464Z,44.88
2018-03-26T20:31:09.566Z,45.55
2018-03-26T20:33:41.024Z,46.63
2018-03-26T20:36:12.172Z,45.47
2018-03-26T20:38:44.326Z,43.83
2018-03-26T20:41:15.737Z,46.22
2018-03-26T20:43:48.464Z,44.33
2018-03-26T20:46:22.613Z,48.60
2018-03-26T20:48:57.802Z,45.38
2018-03-26T20:51:37.277Z,48.53
2018-03-26T20:54:17.417Z,48.67
2018-03-26T20:56:58.031Z,50.17
2018-03-26T20:59:47.214Z,49.75
2018-03-26T21:02:23.044Z,50.03
2018-03-26T21:05:00.239Z,50.42
2018-03-26T21:07:33.955Z,47.45
2018-03-26T21:10:27.711Z,52.17
2018-03-26T21:12:59.818Z,52.23
2018-03-26T21:15:33.561Z,51.47
2018-03-26T21:18:05.031Z,56.35
2018-03-26T21:20:36.159Z,54.70
2018-03-26T21:23:09.524Z,52.90
2018-03-26T21:25:41.070Z,57.97
2018-03-26T21:28:11.143Z,53.63
2018-03-26T21:30:42.518Z,58.60
2018-03-26T21:33:13.648Z,55.83
2018-03-26T21:35:46.445Z,52.42
2018-03-26T21:38:19.027Z,60.53
2018-03-26T21:40:49.812Z,57.35
2018-03-26T21:43:20.859Z,56.45
2018-03-26T21:45:52.267Z,56.33
2018-03-26T21:48:23.311Z,52.53
2018-03-26T21:50:54.247Z,56.40
2018-03-26T21:53:25.207Z,54.47
2018-03-26T21:55:56.502Z,53.50
2018-03-26T21:58:28.566Z,51.05
2018-03-26T22:01:01.077Z,44.40
2018-03-26T22:03:32.195Z,49.35
2018-03-26T22:06:03.042Z,44.10
2018-03-26T22:08:33.498Z,48.30
2018-03-26T22:11:08.080Z,45.05
2018-03-26T22:13:39.835Z,50.30
2018-03-26T22:16:12.941Z,49.80
2018-03-26T22:18:47.099Z,51.63
2018-03-26T22:21:18.082Z,52.45
2018-03-26T22:23:49.346Z,57.83
2018-03-26T22:26:19.478Z,57.85
2018-03-26T22:28:50.843Z,62.23
2018-03-26T22:31:21.570Z,58.97
2018-03-26T22:33:51.886Z,61.25
2018-03-26T22:36:24.279Z,64.37
2018-03-26T22:38:54.558Z,53.87
2018-03-26T22:41:24.830Z,56.07
2018-03-26T22:43:55.174Z,56.55
2018-03-26T22:46:25.559Z,51.92
2018-03-26T22:48:55.592Z,48.47
2018-03-26T22:51:26.251Z,50.33
2018-03-26T22:53:56.445Z,47.30
2018-03-26T22:56:28.086Z,49.88
2018-03-26T22:58:58.548Z,44.60
2018-03-26T23:01:28.633Z,45.83
2018-03-26T23:03:58.840Z,46.80
2018-03-26T23:06:29.080Z,48.15
2018-03-26T23:08:59.519Z,43.78
2018-03-26T23:11:29.829Z,45.35
2018-03-26T23:14:00.750Z,46.30
2018-03-26T23:16:32.383Z,41.08
2018-03-26T23:19:02.879Z,41.50
2018-03-26T23:21:33.351Z,45.90
2018-03-26T23:24:04.728Z,50.30
2018-03-26T23:26:35.079Z,49.13
2018-03-26T23:29:07.817Z,49.00
2018-03-26T23:31:44.289Z,49.17
2018-03-26T23:34:17.275Z,46.90
2018-03-26T23:36:49.179Z,44.17
2018-03-26T23:39:20.898Z,45.45
2018-03-26T23:41:51.247Z,45.40
2018-03-26T23:44:22.402Z,42.95
2018-03-26T23:46:53.531Z,46.58
2018-03-26T23:49:25.263Z,44.60
2018-03-26T23:51:55.614Z,44.23
2018-03-26T23:54:26.074Z,44.35
2018-03-26T23:56:57.139Z,46.53
2018-03-26T23:59:28.667Z,45.60
